createdAt,value
2022-11-29T00:01:36.648Z,4.30
2022-11-29T00:04:10.312Z,4.20
2022-11-29T00:06:40.732Z,4.30
2022-11-29T00:09:18.817Z,4.30
2022-11-29T00:12:06.959Z,4.30
2022-11-29T00:14:36.469Z,4.30
2022-11-29T00:17:06.763Z,4.30
2022-11-29T00:19:50.528Z,4.30
2022-11-29T00:22:27.290Z,4.20
2022-11-29T00:24:56.709Z,4.30
2022-11-29T00:27:26.324Z,4.30
2022-11-29T00:29:55.831Z,4.20
2022-11-29T00:32:27.033Z,4.30
2022-11-29T00:34:59.721Z,4.30
2022-11-29T00:37:37.612Z,4.30
2022-11-29T00:40:14.712Z,4.30
2022-11-29T00:42:45.041Z,4.30
2022-11-29T00:45:18.346Z,4.30
2022-11-29T00:47:52.248Z,4.30
2022-11-29T00:50:24.024Z,4.30
2022-11-29T00:52:53.999Z,4.30
2022-11-29T00:55:33.313Z,4.30
2022-11-29T00:58:02.658Z,4.30
2022-11-29T01:00:38.607Z,4.30
2022-11-29T01:03:15.456Z,4.20
2022-11-29T01:05:46.764Z,4.20
2022-11-29T01:08:20.381Z,4.20
2022-11-29T01:10:50.038Z,4.20
2022-11-29T01:13:19.473Z,4.20
2022-11-29T01:15:56.854Z,4.20
2022-11-29T01:18:31.813Z,4.20
2022-11-29T01:21:13.239Z,4.10
2022-11-29T01:23:43.161Z,4.10
2022-11-29T01:26:23.064Z,4.10
2022-11-29T01:28:54.848Z,4.20
2022-11-29T01:31:27.125Z,4.10
2022-11-29T01:33:57.867Z,4.10
2022-11-29T01:36:32.132Z,4.10
2022-11-29T01:39:02.679Z,4.10
2022-11-29T01:41:44.047Z,4.10
2022-11-29T01:45:07.255Z,4.10
2022-11-29T01:47:41.932Z,4.10
2022-11-29T01:50:13.125Z,4.10
2022-11-29T01:52:54.406Z,4.00
2022-11-29T01:55:26.849Z,4.00
2022-11-29T01:58:05.283Z,4.00
2022-11-29T02:00:38.178Z,4.00
2022-11-29T02:03:13.456Z,4.00
2022-11-29T02:05:46.965Z,4.00
2022-11-29T02:08:26.434Z,4.00
2022-11-29T02:11:27.815Z,3.90
2022-11-29T02:14:21.843Z,4.00
2022-11-29T02:17:02.829Z,3.90
2022-11-29T02:20:19.089Z,3.90
2022-11-29T02:22:58.571Z,3.90
2022-11-29T02:25:55.256Z,3.90
2022-11-29T02:29:18.639Z,3.90
2022-11-29T02:32:57.795Z,3.90
2022-11-29T02:35:46.286Z,3.90
2022-11-29T02:38:47.143Z,3.90
2022-11-29T02:41:37.640Z,3.90
2022-11-29T02:44:41.923Z,3.90
2022-11-29T02:47:28.205Z,3.90
2022-11-29T02:50:33.566Z,3.90
2022-11-29T02:53:17.046Z,3.80
2022-11-29T02:56:05.550Z,3.90
2022-11-29T02:58:47.232Z,3.90
2022-11-29T03:01:27.082Z,3.90
2022-11-29T03:04:08.965Z,3.90
2022-11-29T03:06:52.778Z,3.90
2022-11-29T03:09:33.735Z,3.80
2022-11-29T03:12:21.105Z,3.80
2022-11-29T03:15:04.184Z,3.80
2022-11-29T03:17:54.287Z,3.80
2022-11-29T03:20:39.240Z,3.80
2022-11-29T03:23:27.385Z,3.80
2022-11-29T03:26:06.183Z,3.80
2022-11-29T03:28:41.230Z,3.80
2022-11-29T03:31:21.319Z,3.80
2022-11-29T03:34:04.629Z,3.80
2022-11-29T03:36:49.534Z,3.80
2022-11-29T03:39:25.679Z,3.80
2022-11-29T03:42:02.334Z,3.80
2022-11-29T03:44:41.218Z,3.80
2022-11-29T03:47:17.430Z,3.80
2022-11-29T03:49:55.109Z,3.80
2022-11-29T03:52:36.004Z,3.80
2022-11-29T03:55:32.730Z,3.80
2022-11-29T03:58:31.563Z,3.80
2022-11-29T04:01:36.945Z,3.80
2022-11-29T04:04:51.818Z,3.90
2022-11-29T04:07:45.552Z,3.80
2022-11-29T04:10:37.383Z,3.90
2022-11-29T04:13:54.924Z,3.90
2022-11-29T04:17:28.541Z,3.80
2022-11-29T04:20:45.329Z,3.80
2022-11-29T04:24:10.914Z,3.80
2022-11-29T04:27:28.506Z,3.80
2022-11-29T04:30:18.343Z,3.90
2022-11-29T04:33:56.120Z,3.90
2022-11-29T04:37:12.128Z,3.90
2022-11-29T04:40:19.923Z,3.80
2022-11-29T04:43:25.702Z,3.90
2022-11-29T04:46:20.799Z,3.90
2022-11-29T04:49:13.361Z,3.90
2022-11-29T04:52:20.783Z,3.80
2022-11-29T04:55:16.883Z,3.80
2022-11-29T04:58:11.998Z,3.80
2022-11-29T05:00:54.904Z,3.80
2022-11-29T05:03:46.924Z,3.80
2022-11-29T05:06:41.452Z,3.80
2022-11-29T05:09:26.263Z,3.80
2022-11-29T05:12:13.409Z,3.80
2022-11-29T05:15:15.816Z,3.80
2022-11-29T05:18:01.091Z,3.80
2022-11-29T05:20:48.007Z,3.80
2022-11-29T05:23:51.535Z,3.80
2022-11-29T05:26:34.499Z,3.80
2022-11-29T05:29:15.404Z,3.80
2022-11-29T05:32:22.063Z,3.80
2022-11-29T05:35:28.877Z,3.80
2022-11-29T05:38:11.020Z,3.80
2022-11-29T05:41:04.657Z,3.80
2022-11-29T05:44:02.315Z,3.80
2022-11-29T05:46:47.499Z,3.80
2022-11-29T05:49:33.867Z,3.80
2022-11-29T05:52:24.627Z,3.80
2022-11-29T05:55:21.159Z,3.80
2022-11-29T05:58:01.796Z,3.80
2022-11-29T06:00:42.412Z,3.80
2022-11-29T06:03:31.342Z,3.80
2022-11-29T06:06:15.926Z,3.80
2022-11-29T06:08:55.217Z,3.80
2022-11-29T06:11:29.730Z,3.80
2022-11-29T06:14:12.228Z,3.80
2022-11-29T06:17:07.052Z,3.80
2022-11-29T06:20:12.033Z,3.80
2022-11-29T06:23:20.146Z,3.80
2022-11-29T06:26:25.578Z,3.80
2022-11-29T06:29:20.625Z,3.80
2022-11-29T06:32:04.339Z,3.80
2022-11-29T06:34:51.239Z,3.80
2022-11-29T06:37:37.171Z,3.80
2022-11-29T06:40:17.110Z,3.80
2022-11-29T06:42:55.618Z,3.80
2022-11-29T06:45:28.300Z,3.80
2022-11-29T06:48:14.518Z,3.80
2022-11-29T06:51:03.182Z,3.80
2022-11-29T06:53:55.117Z,3.80
2022-11-29T06:56:42.951Z,3.80
2022-11-29T06:59:35.412Z,3.80
2022-11-29T07:02:32.828Z,3.70
2022-11-29T07:05:26.535Z,3.80
2022-11-29T07:07:59.321Z,3.80
2022-11-29T07:10:43.699Z,3.80
2022-11-29T07:13:16.099Z,3.80
2022-11-29T07:16:12.987Z,3.80
2022-11-29T07:18:49.602Z,3.80
2022-11-29T07:21:42.955Z,3.90
2022-11-29T07:24:32.642Z,3.90
2022-11-29T07:27:23.824Z,3.90
2022-11-29T07:30:12.599Z,3.90
2022-11-29T07:33:03.627Z,3.90
2022-11-29T07:35:51.998Z,3.90
2022-11-29T07:38:45.578Z,3.90
2022-11-29T07:41:26.739Z,3.90
2022-11-29T07:44:15.711Z,3.90
2022-11-29T07:46:46.454Z,3.90
2022-11-29T07:49:15.773Z,4.00
2022-11-29T07:51:44.721Z,3.90
2022-11-29T07:54:21.992Z,4.00
2022-11-29T07:56:57.177Z,4.00
2022-11-29T07:59:30.142Z,4.00
2022-11-29T08:02:01.328Z,4.00
2022-11-29T08:04:35.933Z,4.00
2022-11-29T08:07:07.602Z,4.00
2022-11-29T08:09:38.751Z,4.00
2022-11-29T08:12:09.855Z,4.10
2022-11-29T08:14:43.236Z,4.10
2022-11-29T08:17:14.588Z,4.10
2022-11-29T08:19:43.673Z,4.10
2022-11-29T08:22:16.915Z,4.10
2022-11-29T08:24:47.313Z,4.20
2022-11-29T08:27:16.589Z,4.20
2022-11-29T08:29:45.752Z,4.20
2022-11-29T08:32:16.259Z,4.10
2022-11-29T08:34:45.734Z,4.20
2022-11-29T08:37:20.656Z,4.20
2022-11-29T08:39:59.245Z,4.20
2022-11-29T08:42:28.439Z,4.20
2022-11-29T08:45:01.183Z,4.30
2022-11-29T08:47:39.440Z,4.30
2022-11-29T08:50:15.630Z,4.20
2022-11-29T08:53:04.484Z,4.20
2022-11-29T08:55:48.328Z,4.30
2022-11-29T08:58:18.470Z,4.30
2022-11-29T09:00:48.236Z,4.30
2022-11-29T09:03:38.691Z,4.30
2022-11-29T09:06:12.617Z,4.30
2022-11-29T09:08:44.214Z,4.40
2022-11-29T09:11:23.273Z,4.40
2022-11-29T09:14:03.300Z,4.40
2022-11-29T09:16:37.429Z,4.40
2022-11-29T09:19:08.811Z,4.50
2022-11-29T09:21:41.772Z,4.50
2022-11-29T09:24:15.415Z,4.50
2022-11-29T09:26:48.921Z,4.50
2022-11-29T09:29:19.360Z,4.50
2022-11-29T09:31:48.622Z,4.50
2022-11-29T09:34:20.764Z,4.60
2022-11-29T09:36:50.057Z,4.60
2022-11-29T09:39:19.297Z,4.50
2022-11-29T09:42:14.586Z,4.50
2022-11-29T09:45:02.424Z,4.60
2022-11-29T09:48:20.363Z,4.60
2022-11-29T09:51:08.610Z,4.60
2022-11-29T09:53:58.341Z,4.70
2022-11-29T09:56:41.951Z,4.60
2022-11-29T09:59:22.862Z,4.60
2022-11-29T10:02:01.591Z,4.60
2022-11-29T10:04:40.564Z,4.70
2022-11-29T10:07:22.925Z,4.60
2022-11-29T10:10:05.183Z,4.60
2022-11-29T10:12:45.749Z,4.60
2022-11-29T10:15:23.043Z,4.60
2022-11-29T10:18:01.175Z,4.60
2022-11-29T10:20:41.391Z,4.60
2022-11-29T10:23:31.085Z,4.70
2022-11-29T10:26:08.409Z,4.70
2022-11-29T10:28:48.573Z,4.70
2022-11-29T10:31:29.170Z,4.70
2022-11-29T10:34:14.264Z,4.70
2022-11-29T10:36:49.252Z,4.60
2022-11-29T10:39:34.258Z,4.70
2022-11-29T10:42:37.979Z,4.70
2022-11-29T10:45:18.369Z,4.60
2022-11-29T10:47:54.569Z,4.60
2022-11-29T10:50:28.460Z,4.60
2022-11-29T10:53:05.721Z,4.50
2022-11-29T10:55:45.621Z,4.60
2022-11-29T10:58:28.065Z,4.60
2022-11-29T11:01:03.283Z,4.70
2022-11-29T11:03:49.004Z,4.60
2022-11-29T11:06:26.328Z,4.60
2022-11-29T11:09:15.077Z,4.60
2022-11-29T11:11:55.210Z,4.60
2022-11-29T11:14:32.462Z,4.70
2022-11-29T11:17:26.378Z,4.70
2022-11-29T11:20:06.061Z,4.60
2022-11-29T11:22:41.287Z,4.60
2022-11-29T11:25:35.186Z,4.70
2022-11-29T11:28:22.673Z,4.70
2022-11-29T11:30:57.863Z,4.70
2022-11-29T11:33:35.049Z,4.70
2022-11-29T11:36:15.455Z,4.70
2022-11-29T11:38:58.617Z,4.70
2022-11-29T11:41:53.424Z,4.80
2022-11-29T11:44:58.149Z,4.70
2022-11-29T11:47:31.408Z,4.70
2022-11-29T11:50:16.586Z,4.60
2022-11-29T11:53:00.134Z,4.60
2022-11-29T11:56:33.531Z,4.70
2022-11-29T12:02:37.781Z,4.70
2022-11-29T12:08:16.427Z,4.80
2022-11-29T12:13:55.779Z,4.80
2022-11-29T12:16:42.104Z,4.80
2022-11-29T12:19:26.889Z,4.80
2022-11-29T12:22:08.556Z,4.80
2022-11-29T12:24:50.259Z,4.80
2022-11-29T12:27:31.317Z,4.80
2022-11-29T12:30:05.913Z,4.80
2022-11-29T12:33:14.159Z,4.80
2022-11-29T12:36:14.454Z,4.80
2022-11-29T12:39:09.844Z,4.90
2022-11-29T12:41:57.461Z,4.90
2022-11-29T12:44:50.125Z,4.90
2022-11-29T12:47:40.294Z,5.00
2022-11-29T12:50:33.881Z,5.00
2022-11-29T12:53:27.325Z,5.00
2022-11-29T12:56:16.599Z,5.00
2022-11-29T12:59:07.724Z,5.00
2022-11-29T13:01:59.884Z,5.00
2022-11-29T13:04:47.541Z,4.90
2022-11-29T13:07:31.743Z,4.90
2022-11-29T13:10:29.212Z,5.00
2022-11-29T13:13:07.117Z,5.00
2022-11-29T13:15:49.677Z,5.00
2022-11-29T13:18:39.397Z,5.00
2022-11-29T13:21:29.825Z,5.00
2022-11-29T13:24:09.698Z,5.00
2022-11-29T13:26:43.715Z,5.00
2022-11-29T13:29:18.510Z,5.10
2022-11-29T13:31:52.419Z,5.00
2022-11-29T13:34:35.467Z,5.00
2022-11-29T13:37:22.483Z,5.00
2022-11-29T13:40:07.343Z,4.90
2022-11-29T13:42:51.547Z,4.90
2022-11-29T13:45:31.221Z,4.90
2022-11-29T13:48:28.095Z,4.90
2022-11-29T13:51:02.712Z,4.90
2022-11-29T13:53:49.353Z,4.80
2022-11-29T13:56:47.715Z,4.90
2022-11-29T13:59:29.570Z,4.90
2022-11-29T14:01:59.608Z,4.90
2022-11-29T14:04:41.634Z,4.90
2022-11-29T14:07:16.033Z,4.90
2022-11-29T14:09:59.124Z,4.90
2022-11-29T14:12:45.820Z,4.80
2022-11-29T14:15:34.490Z,4.80
2022-11-29T14:18:09.743Z,4.80
2022-11-29T14:20:56.801Z,4.70
2022-11-29T14:23:41.916Z,4.70
2022-11-29T14:26:32.021Z,4.70
2022-11-29T14:29:02.460Z,4.70
2022-11-29T14:32:01.927Z,4.70
2022-11-29T14:34:52.140Z,4.60
2022-11-29T14:37:54.334Z,4.60
2022-11-29T14:40:45.969Z,4.60
2022-11-29T14:43:24.453Z,4.60
2022-11-29T14:46:30.732Z,4.60
2022-11-29T14:49:19.894Z,4.60
2022-11-29T14:52:18.583Z,4.60
2022-11-29T14:55:02.893Z,4.60
2022-11-29T14:58:18.748Z,4.50
2022-11-29T15:01:15.605Z,4.50
2022-11-29T15:03:51.197Z,4.50
2022-11-29T15:06:29.188Z,4.50
2022-11-29T15:09:18.548Z,4.60
2022-11-29T15:11:58.898Z,4.60
2022-11-29T15:14:46.789Z,4.60
2022-11-29T15:17:33.405Z,4.60
2022-11-29T15:20:40.421Z,4.60
2022-11-29T15:23:20.184Z,4.60
2022-11-29T15:25:53.786Z,4.60
2022-11-29T15:28:26.770Z,4.60
2022-11-29T15:31:09.195Z,4.70
2022-11-29T15:33:52.578Z,4.60
2022-11-29T15:36:24.889Z,4.60
2022-11-29T15:38:59.932Z,4.70
2022-11-29T15:41:32.567Z,4.70
2022-11-29T15:44:07.176Z,4.60
2022-11-29T15:46:37.388Z,4.60
2022-11-29T15:49:18.823Z,4.70
2022-11-29T15:51:55.499Z,4.70
2022-11-29T15:54:44.712Z,4.70
2022-11-29T15:57:25.538Z,4.70
2022-11-29T16:00:02.930Z,4.70
2022-11-29T16:02:35.870Z,4.70
2022-11-29T16:05:18.021Z,4.70
2022-11-29T16:07:50.709Z,4.70
2022-11-29T16:10:35.164Z,4.70
2022-11-29T16:13:27.528Z,4.70
2022-11-29T16:16:10.858Z,4.70
2022-11-29T16:18:42.051Z,4.70
2022-11-29T16:21:30.563Z,4.70
2022-11-29T16:24:13.604Z,4.70
2022-11-29T16:26:56.346Z,4.60
2022-11-29T16:29:32.931Z,4.60
2022-11-29T16:32:13.190Z,4.60
2022-11-29T16:34:45.704Z,4.60
2022-11-29T16:37:22.396Z,4.60
2022-11-29T16:40:06.474Z,4.60
2022-11-29T16:42:38.944Z,4.70
2022-11-29T16:45:33.953Z,4.60
2022-11-29T16:48:04.892Z,4.60
2022-11-29T16:50:35.417Z,4.60
2022-11-29T16:53:36.989Z,4.60
2022-11-29T16:56:12.879Z,4.60
2022-11-29T16:59:25.613Z,4.60
2022-11-29T17:01:36.650Z,4.60
2022-11-29T17:04:07.281Z,4.60
2022-11-29T17:06:38.151Z,4.60
2022-11-29T17:09:07.431Z,4.60
2022-11-29T17:11:37.197Z,4.60
2022-11-29T17:14:07.902Z,4.60
2022-11-29T17:16:38.492Z,4.60
2022-11-29T17:19:09.409Z,4.60
2022-11-29T17:21:38.330Z,4.60
2022-11-29T17:24:22.676Z,4.60
2022-11-29T17:26:52.872Z,4.60
2022-11-29T17:29:24.054Z,4.60
2022-11-29T17:31:55.995Z,4.60
2022-11-29T17:34:25.160Z,4.60
2022-11-29T17:36:54.621Z,4.60
2022-11-29T17:39:24.375Z,4.60
2022-11-29T17:41:54.667Z,4.60
2022-11-29T17:44:25.079Z,4.60
2022-11-29T17:47:02.754Z,4.50
2022-11-29T17:49:35.424Z,4.50
2022-11-29T17:52:07.631Z,4.60
2022-11-29T17:54:36.897Z,4.60
2022-11-29T17:57:08.231Z,4.60
2022-11-29T17:59:39.558Z,4.50
2022-11-29T18:02:09.583Z,4.50
2022-11-29T18:04:45.028Z,4.50
2022-11-29T18:07:19.329Z,4.50
2022-11-29T18:09:53.801Z,4.50
2022-11-29T18:12:23.803Z,4.50
2022-11-29T18:14:55.006Z,4.60
2022-11-29T18:17:30.227Z,4.50
2022-11-29T18:20:00.008Z,4.50
2022-11-29T18:22:29.539Z,4.50
2022-11-29T18:25:30.108Z,4.50
2022-11-29T18:27:53.155Z,4.50
2022-11-29T18:30:38.307Z,4.50
2022-11-29T18:33:08.291Z,4.50
2022-11-29T18:35:40.557Z,4.50
2022-11-29T18:40:57.632Z,4.40
2022-11-29T18:43:31.277Z,4.50
2022-11-29T18:46:09.019Z,4.50
2022-11-29T18:48:38.903Z,4.50
2022-11-29T18:51:11.334Z,4.50
2022-11-29T18:53:41.756Z,4.50
2022-11-29T18:56:17.057Z,4.50
2022-11-29T18:58:54.139Z,4.50
2022-11-29T19:01:41.037Z,4.50
2022-11-29T19:04:13.323Z,4.40
2022-11-29T19:06:50.416Z,4.40
2022-11-29T19:09:25.672Z,4.40
2022-11-29T19:11:58.247Z,4.40
2022-11-29T19:14:32.640Z,4.40
2022-11-29T19:17:06.888Z,4.40
2022-11-29T19:19:41.468Z,4.40
2022-11-29T19:22:14.167Z,4.40
2022-11-29T19:24:49.539Z,4.40
2022-11-29T19:27:19.589Z,4.40
2022-11-29T19:29:50.641Z,4.40
2022-11-29T19:32:23.924Z,4.40
2022-11-29T19:34:53.584Z,4.30
2022-11-29T19:37:25.206Z,4.30
2022-11-29T19:39:57.660Z,4.30
2022-11-29T19:42:28.510Z,4.40
2022-11-29T19:47:48.734Z,4.30
2022-11-29T19:50:17.657Z,4.30
2022-11-29T19:52:47.256Z,4.30
2022-11-29T19:55:17.651Z,4.30
2022-11-29T19:57:50.760Z,4.30
2022-11-29T20:00:21.958Z,4.30
2022-11-29T20:02:52.557Z,4.30
2022-11-29T20:05:21.768Z,4.30
2022-11-29T20:07:57.395Z,4.30
2022-11-29T20:10:27.647Z,4.30
2022-11-29T20:12:57.245Z,4.30
2022-11-29T20:15:26.014Z,4.30
2022-11-29T20:17:57.049Z,4.30
2022-11-29T20:20:26.850Z,4.30
2022-11-29T20:22:56.615Z,4.30
2022-11-29T20:25:26.919Z,4.30
2022-11-29T20:27:55.927Z,4.30
2022-11-29T20:30:26.010Z,4.30
2022-11-29T20:32:57.592Z,4.30
2022-11-29T20:35:27.464Z,4.30
2022-11-29T20:38:29.748Z,4.30
2022-11-29T20:41:20.579Z,4.20
2022-11-29T20:43:57.768Z,4.30
2022-11-29T20:46:29.455Z,4.30
2022-11-29T20:49:06.580Z,4.30
2022-11-29T20:51:49.403Z,4.30
2022-11-29T20:54:21.578Z,4.30
2022-11-29T20:56:53.625Z,4.30
2022-11-29T20:59:22.804Z,4.20
2022-11-29T21:01:54.462Z,4.20
2022-11-29T21:04:26.885Z,4.30
2022-11-29T21:06:56.313Z,4.30
2022-11-29T21:09:31.205Z,4.30
2022-11-29T21:12:07.442Z,4.30
2022-11-29T21:14:38.459Z,4.30
2022-11-29T21:17:10.056Z,4.30
2022-11-29T21:19:45.085Z,4.30
2022-11-29T21:22:29.792Z,4.30
2022-11-29T21:25:15.996Z,4.30
2022-11-29T21:28:00.662Z,4.20
2022-11-29T21:30:30.977Z,4.30
2022-11-29T21:33:01.339Z,4.30
2022-11-29T21:35:37.569Z,4.30
2022-11-29T21:38:08.067Z,4.20
2022-11-29T21:40:42.843Z,4.20
2022-11-29T21:43:14.729Z,4.20
2022-11-29T21:45:44.586Z,4.20
2022-11-29T21:48:30.313Z,4.20
2022-11-29T21:51:05.656Z,4.20
2022-11-29T21:53:43.284Z,4.10
2022-11-29T21:56:13.510Z,4.10
2022-11-29T21:58:43.938Z,4.10
2022-11-29T22:01:17.621Z,4.20
2022-11-29T22:03:54.027Z,4.20
2022-11-29T22:06:26.482Z,4.20
2022-11-29T22:08:58.184Z,4.20
2022-11-29T22:11:38.100Z,4.20
2022-11-29T22:14:17.457Z,4.20
2022-11-29T22:16:50.184Z,4.20
2022-11-29T22:19:26.775Z,4.20
2022-11-29T22:22:17.788Z,4.20
2022-11-29T22:24:46.741Z,4.30
2022-11-29T22:27:18.254Z,4.30
2022-11-29T22:29:51.963Z,4.20
2022-11-29T22:32:21.115Z,4.20
2022-11-29T22:34:51.590Z,4.20
2022-11-29T22:37:26.093Z,4.20
2022-11-29T22:39:58.125Z,4.20
2022-11-29T22:42:28.199Z,4.10
2022-11-29T22:44:57.999Z,4.10
2022-11-29T22:47:30.174Z,4.20
2022-11-29T22:49:59.324Z,4.20
2022-11-29T22:52:33.171Z,4.10
2022-11-29T22:55:07.887Z,4.10
2022-11-29T22:57:37.237Z,4.10
2022-11-29T23:00:11.303Z,4.10
2022-11-29T23:02:40.931Z,4.10
2022-11-29T23:05:11.137Z,4.10
2022-11-29T23:07:41.920Z,4.00
2022-11-29T23:10:13.856Z,4.10
2022-11-29T23:12:45.125Z,4.10
2022-11-29T23:15:14.834Z,4.10
2022-11-29T23:17:43.681Z,4.10
2022-11-29T23:20:15.954Z,4.10
2022-11-29T23:22:49.033Z,4.10
2022-11-29T23:25:18.916Z,4.10
2022-11-29T23:27:57.048Z,4.10
2022-11-29T23:30:26.893Z,4.10
2022-11-29T23:32:56.847Z,4.10
2022-11-29T23:35:25.887Z,4.10
2022-11-29T23:37:56.791Z,4.10
2022-11-29T23:40:26.139Z,4.10
2022-11-29T23:42:56.802Z,4.10
2022-11-29T23:45:25.886Z,4.00
2022-11-29T23:47:56.313Z,4.10
2022-11-29T23:50:26.204Z,4.10
2022-11-29T23:53:02.608Z,4.10
2022-11-29T23:55:31.803Z,4.10
2022-11-29T23:58:06.183Z,4.10
